TimeCDT,TemperatureF,Dew PointF,Humidity,Sea Level PressureIn,VisibilityMPH,Wind Direction,Wind SpeedMPH,Gust SpeedMPH,PrecipitationIn,Events,Conditions,WindDirDegrees,DateUTC
12:17 AM,55.4,53.6,94,30.08,10.0,Calm,Calm,-,N/A,,Clear,0,2013-08-03 05:17:00
12:36 AM,55.6,53.6,93,30.08,10.0,Calm,Calm,-,N/A,,Clear,0,2013-08-03 05:36:00
12:56 AM,55.4,53.8,94,30.08,10.0,Calm,Calm,-,N/A,,Clear,0,2013-08-03 05:56:00
1:16 AM,53.1,52.0,96,30.08,10.0,Calm,Calm,-,N/A,,Clear,0,2013-08-03 06:16:00
1:37 AM,52.9,52.0,97,30.09,10.0,Calm,Calm,-,N/A,,Clear,0,2013-08-03 06:37:00
1:56 AM,54.0,52.7,95,30.09,10.0,Calm,Calm,-,N/A,,Scattered Clouds,0,2013-08-03 06:56:00
2:16 AM,54.5,53.2,96,30.09,10.0,Calm,Calm,-,N/A,,Mostly Cloudy,0,2013-08-03 07:16:00
2:37 AM,54.5,53.2,96,30.09,10.0,Calm,Calm,-,N/A,,Scattered Clouds,0,2013-08-03 07:37:00
2:56 AM,54.0,53.2,97,30.09,10.0,Calm,Calm,-,N/A,,Scattered Clouds,0,2013-08-03 07:56:00
3:16 AM,54.5,52.9,94,30.10,10.0,Calm,Calm,-,N/A,,Mostly Cloudy,0,2013-08-03 08:16:00
3:36 AM,54.9,53.1,94,30.10,10.0,NNW,3.5,-,N/A,,Mostly Cloudy,330,2013-08-03 08:36:00
3:56 AM,55.2,52.7,91,30.10,10.0,Calm,Calm,-,N/A,,Scattered Clouds,0,2013-08-03 08:56:00
4:16 AM,54.1,52.2,93,30.11,10.0,WNW,3.5,-,N/A,,Clear,290,2013-08-03 09:16:00
4:36 AM,52.5,50.9,94,30.11,10.0,Calm,Calm,-,N/A,,Clear,0,2013-08-03 09:36:00
4:56 AM,53.4,51.3,92,30.11,10.0,Calm,Calm,-,N/A,,Clear,0,2013-08-03 09:56:00
5:16 AM,51.3,50.2,96,30.11,10.0,Calm,Calm,-,N/A,,Clear,0,2013-08-03 10:16:00
5:36 AM,50.7,50.0,97,30.11,5.0,Calm,Calm,-,N/A,,Clear,0,2013-08-03 10:36:00
5:56 AM,51.6,50.9,97,30.11,10.0,Calm,Calm,-,N/A,,Clear,0,2013-08-03 10:56:00
6:16 AM,50.5,50.0,98,30.12,7.0,Calm,Calm,-,N/A,,Clear,0,2013-08-03 11:16:00
6:36 AM,50.9,50.4,98,30.13,10.0,Calm,Calm,-,N/A,,Clear,0,2013-08-03 11:36:00
6:56 AM,52.9,52.7,99,30.14,10.0,Calm,Calm,-,N/A,,Clear,0,2013-08-03 11:56:00
7:16 AM,55.4,54.7,97,30.14,10.0,Calm,Calm,-,N/A,,Clear,0,2013-08-03 12:16:00
7:36 AM,56.1,55.2,97,30.15,10.0,Calm,Calm,-,N/A,,Clear,0,2013-08-03 12:36:00
7:56 AM,59.0,56.5,91,30.16,10.0,Calm,Calm,-,N/A,,Clear,0,2013-08-03 12:56:00
8:16 AM,61.2,56.8,86,30.17,10.0,Calm,Calm,-,N/A,,Clear,0,2013-08-03 13:16:00
8:36 AM,62.6,56.5,80,30.17,10.0,Calm,Calm,-,N/A,,Clear,0,2013-08-03 13:36:00
8:56 AM,64.4,56.3,75,30.17,10.0,Calm,Calm,-,N/A,,Clear,0,2013-08-03 13:56:00
9:16 AM,66.2,57.2,73,30.17,10.0,Calm,Calm,-,N/A,,Clear,0,2013-08-03 14:16:00
9:36 AM,67.6,57.0,69,30.17,10.0,Calm,Calm,-,N/A,,Clear,0,2013-08-03 14:36:00
9:56 AM,69.4,55.6,61,30.18,10.0,Calm,Calm,-,N/A,,Clear,0,2013-08-03 14:56:00
10:16 AM,69.8,55.0,59,30.19,10.0,NW,3.5,-,N/A,,Clear,310,2013-08-03 15:16:00
10:36 AM,71.8,53.4,52,30.18,10.0,Calm,Calm,-,N/A,,Clear,0,2013-08-03 15:36:00
10:56 AM,72.3,53.8,52,30.19,10.0,North,5.8,-,N/A,,Clear,350,2013-08-03 15:56:00
11:16 AM,72.5,52.5,49,30.18,10.0,Calm,Calm,-,N/A,,Clear,0,2013-08-03 16:16:00
11:36 AM,72.9,52.7,49,30.18,10.0,North,4.6,-,N/A,,Clear,10,2013-08-03 16:36:00
11:56 AM,73.9,52.3,47,30.18,10.0,NNE,4.6,-,N/A,,Clear,20,2013-08-03 16:56:00
12:16 PM,74.1,51.8,46,30.19,10.0,NE,6.9,-,N/A,,Scattered Clouds,40,2013-08-03 17:16:00
12:36 PM,74.8,52.2,45,30.19,10.0,North,8.1,-,N/A,,Scattered Clouds,10,2013-08-03 17:36:00
12:56 PM,74.5,53.4,48,30.19,10.0,Calm,Calm,-,N/A,,Scattered Clouds,0,2013-08-03 17:56:00
1:16 PM,73.8,51.1,45,30.19,10.0,NNW,6.9,-,N/A,,Mostly Cloudy,330,2013-08-03 18:16:00
1:36 PM,75.0,51.8,44,30.19,10.0,NNW,3.5,-,N/A,,Mostly Cloudy,330,2013-08-03 18:36:00
1:56 PM,73.6,52.7,48,30.19,10.0,NW,5.8,-,N/A,,Mostly Cloudy,320,2013-08-03 18:56:00
2:16 PM,72.1,51.6,48,30.19,7.0,NNW,3.5,-,N/A,,Scattered Clouds,340,2013-08-03 19:16:00
2:37 PM,76.3,50.5,40,30.19,10.0,North,8.1,-,N/A,,Scattered Clouds,350,2013-08-03 19:37:00
2:56 PM,74.5,50.5,43,30.18,10.0,WNW,4.6,-,N/A,,Scattered Clouds,300,2013-08-03 19:56:00
3:16 PM,74.3,49.5,41,30.18,10.0,North,5.8,-,N/A,,Mostly Cloudy,350,2013-08-03 20:16:00
3:37 PM,77.5,51.3,40,30.18,10.0,NW,8.1,-,N/A,,Mostly Cloudy,310,2013-08-03 20:37:00
3:56 PM,75.2,50.5,42,30.18,10.0,North,4.6,-,N/A,,Mostly Cloudy,350,2013-08-03 20:56:00
4:16 PM,75.4,51.6,43,30.17,10.0,North,5.8,-,N/A,,Mostly Cloudy,350,2013-08-03 21:16:00
4:36 PM,77.0,51.6,41,30.17,10.0,NNW,5.8,-,N/A,,Mostly Cloudy,330,2013-08-03 21:36:00
4:57 PM,75.6,52.0,44,30.17,10.0,NNW,8.1,-,N/A,,Mostly Cloudy,340,2013-08-03 21:57:00
5:16 PM,76.6,51.6,42,30.17,10.0,NW,6.9,-,N/A,,Scattered Clouds,320,2013-08-03 22:16:00
5:36 PM,77.2,49.3,37,30.17,10.0,North,6.9,-,N/A,,Mostly Cloudy,10,2013-08-03 22:36:00
5:57 PM,77.4,49.1,37,30.17,10.0,North,9.2,-,N/A,,Mostly Cloudy,350,2013-08-03 22:57:00
6:16 PM,76.5,48.9,38,30.17,10.0,NW,6.9,-,N/A,,Scattered Clouds,320,2013-08-03 23:16:00
6:36 PM,73.2,50.2,44,30.17,10.0,NNW,4.6,-,N/A,,Scattered Clouds,330,2013-08-03 23:36:00
6:56 PM,75.6,48.9,39,30.17,10.0,NW,3.5,-,N/A,,Mostly Cloudy,320,2013-08-03 23:56:00
7:16 PM,74.7,47.8,39,30.17,10.0,NNW,5.8,-,N/A,,Scattered Clouds,330,2013-08-04 00:16:00
7:36 PM,73.0,49.1,43,30.17,10.0,NNW,4.6,-,N/A,,Scattered Clouds,340,2013-08-04 00:36:00
7:56 PM,71.2,50.2,47,30.17,10.0,NNW,3.5,-,N/A,,Clear,340,2013-08-04 00:56:00
8:16 PM,68.9,50.2,51,30.17,10.0,NNW,4.6,-,N/A,,Clear,330,2013-08-04 01:16:00
8:36 PM,67.6,50.9,55,30.17,10.0,Calm,Calm,-,N/A,,Clear,0,2013-08-04 01:36:00
8:56 PM,64.4,52.0,64,30.18,10.0,Calm,Calm,-,N/A,,Clear,0,2013-08-04 01:56:00
9:16 PM,62.2,52.0,69,30.19,10.0,Calm,Calm,-,N/A,,Clear,0,2013-08-04 02:16:00
9:36 PM,60.8,53.2,76,30.19,10.0,Calm,Calm,-,N/A,,Clear,0,2013-08-04 02:36:00
9:56 PM,59.9,52.9,78,30.20,10.0,Calm,Calm,-,N/A,,Clear,0,2013-08-04 02:56:00
10:17 PM,56.8,52.5,85,30.20,10.0,Calm,Calm,-,N/A,,Clear,0,2013-08-04 03:17:00
10:36 PM,57.9,52.7,83,30.21,10.0,Calm,Calm,-,N/A,,Clear,0,2013-08-04 03:36:00
10:56 PM,57.2,53.2,87,30.21,10.0,Calm,Calm,-,N/A,,Clear,0,2013-08-04 03:56:00
11:16 PM,55.2,52.0,89,30.22,10.0,Calm,Calm,-,N/A,,Clear,0,2013-08-04 04:16:00
11:36 PM,56.5,52.5,87,30.22,10.0,North,3.5,-,N/A,,Scattered Clouds,350,2013-08-04 04:36:00
11:56 PM,58.5,52.7,81,30.23,10.0,North,3.5,-,N/A,,Scattered Clouds,360,2013-08-04 04:56:00